Aérodrome :
LOGIN :

S'inscrire | Disclaimer

   EN    FR    IT 

 










Légende :    VFR   VFR Marginal   IFR   IFR Intensif   IFR Très Intensif
Visi : 
Plafond : 
>= 8 km
>= 3000ft
5 à 8 km
1000 à 3000 ft
1500m à 5 km
500 à 1000 ft
800 à 1500m
200 à 500 ft
< 800m
< 200 ft
Symboles :   Orages  Brouillard  Fortes neiges  Fortes précipitations  Vent > 20 kt
SIGMETs :   Divers  Orages  Givrage  Turbulence  Onde Orograph.  Cendres Volcan.







- Altitude de l'aérodrome : 242 ft
- Code IATA : DUB


EIDW - Dublin

DERNIER METAR :
  • 210030Z 30004KT 9999 FEW025 03/03 Q1019 NOSIG

METARs EXPIRÉS :
  • 210000Z 31006KT 280V340 9999 FEW025 04/04 Q1019 NOSIG
  • 202330Z 31006KT 270V340 9999 FEW025 04/04 Q1018 NOSIG
  • 202300Z 31006KT 9999 FEW025 04/04 Q1019 NOSIG
  • 202230Z 29004KT 9999 FEW025 05/04 Q1018 NOSIG
  • 202200Z 28004KT 9999 FEW025 06/04 Q1018 NOSIG

TAF TAF EIDW
Valide du 21 à 00h jusqu'au 22 à 00h UTC


202300Z 2100/2124 VRB03KT 9999 FEW020 SCT040
TEMPO 2100/2107 31006KT
TEMPO 2101/2107 4000 BR SCT010
PROB40
TEMPO 2102/2107 2000
PROB30
TEMPO 2103/2106 0800 FG BKN001
BECMG 2108/2110 09005KT
BECMG 2112/2114 13009KT
BECMG 2118/2121 08007KT
PROB40
TEMPO 2122/2124 3000 BR SCT003
Pas de NOTAMs connus pour ce terrain.



MET'MAP, la Météo Aéronautique d'un coup d'oeil ! - Copyright ORBIFLY Décembre 2007 - Disclaimer

ORBIFLY MET'MAP TEAM :

Programmation & Développement : Alexandra Zaïnal
Conception & Développement : Baudouin d'Aumeries
Co-Programmation & Développement : Marc-Olivier Méhu
Soutien technique & logistique : Manuel Goepfert

Contact : metmap@orbifly.com




SOURCES & CREDITS :

   NOAA